Time;durP1;ratioP1;P1;durP2;ratioP2;P2;SDS_P1;SDS_P2;PMS_P1;PMS_P2;Temp;Humidity;BMP_temperature;BMP_pressure;BME280_temperature;BME280_humidity;BME280_pressure;Samples;Min_cycle;Max_cycle;Signal;HPM_P1;HPM_P2
2021/01/20 00:00:49;;;;;;;5.70;3.35;;;8.20;99.90;;;;;;2070682;28;20041;-76
2021/01/20 00:01:49;;;;;;;6.30;3.70;;;8.20;99.90;;;;;;2070902;28;20042;-76
2021/01/20 00:02:50;;;;;;;7.65;3.15;;;8.20;99.90;;;;;;2070118;28;20645;-77
2021/01/20 00:03:50;;;;;;;8.38;3.78;;;8.20;99.90;;;;;;2079044;28;20057;-77
2021/01/20 00:04:51;;;;;;;7.80;3.63;;;8.20;99.90;;;;;;2079466;28;20029;-76
2021/01/20 00:05:52;;;;;;;8.13;4.28;;;8.20;99.90;;;;;;2078952;28;20037;-76
2021/01/20 00:06:52;;;;;;;8.30;3.53;;;8.30;99.90;;;;;;2078727;28;20032;-76
2021/01/20 00:07:53;;;;;;;8.32;3.85;;;8.20;99.90;;;;;;2079598;28;20033;-75
2021/01/20 00:08:53;;;;;;;8.23;3.80;;;8.30;99.90;;;;;;2078955;28;20471;-75
2021/01/20 00:09:54;;;;;;;8.88;4.10;;;8.20;99.90;;;;;;2079118;28;20022;-75
2021/01/20 00:10:55;;;;;;;5.65;3.45;;;8.30;99.90;;;;;;2079150;28;20022;-76
2021/01/20 00:11:55;;;;;;;8.95;3.78;;;8.30;99.90;;;;;;2079332;28;20037;-76
2021/01/20 00:12:56;;;;;;;7.22;3.63;;;8.30;99.90;;;;;;2070651;28;20026;-75
2021/01/20 00:13:57;;;;;;;7.53;3.55;;;8.20;99.90;;;;;;2070015;28;20038;-75
2021/01/20 00:14:57;;;;;;;10.40;4.00;;;8.20;99.90;;;;;;2079137;28;20052;-76
2021/01/20 00:15:58;;;;;;;6.18;3.63;;;8.20;99.90;;;;;;2078934;28;20045;-76
2021/01/20 00:16:58;;;;;;;9.18;3.75;;;8.30;99.90;;;;;;2078696;28;20109;-76
2021/01/20 00:17:59;;;;;;;8.38;3.67;;;8.20;99.90;;;;;;2079031;28;20464;-75
2021/01/20 00:18:59;;;;;;;9.15;3.70;;;8.20;99.90;;;;;;2078938;28;20053;-77
2021/01/20 00:20:00;;;;;;;7.00;3.60;;;8.20;99.90;;;;;;2079313;28;20021;-75
2021/01/20 00:21:01;;;;;;;6.10;3.33;;;8.20;99.90;;;;;;2076294;28;20037;-76
2021/01/20 00:22:02;;;;;;;7.85;3.70;;;8.30;99.90;;;;;;2076690;28;20040;-76
2021/01/20 00:23:03;;;;;;;7.22;3.90;;;8.30;99.90;;;;;;2075238;28;20038;-75
2021/01/20 00:24:04;;;;;;;10.20;3.95;;;8.30;99.90;;;;;;2069929;28;20036;-75
2021/01/20 00:25:06;;;;;;;8.38;3.38;;;8.30;99.90;;;;;;2070334;28;20029;-76
2021/01/20 00:26:06;;;;;;;10.88;3.63;;;8.30;99.90;;;;;;2070043;28;20032;-75
2021/01/20 00:27:08;;;;;;;8.07;3.20;;;8.30;99.90;;;;;;2078778;28;20040;-77
2021/01/20 00:28:08;;;;;;;5.95;2.88;;;8.30;99.90;;;;;;2078621;28;20061;-78
2021/01/20 00:29:09;;;;;;;8.20;3.83;;;8.30;99.90;;;;;;2077560;28;20036;-76
2021/01/20 00:30:10;;;;;;;6.40;3.58;;;8.30;99.90;;;;;;2069363;28;20057;-76
2021/01/20 00:31:11;;;;;;;6.85;3.50;;;8.30;99.90;;;;;;2070454;28;20029;-75
2021/01/20 00:32:12;;;;;;;7.53;3.33;;;8.20;99.90;;;;;;2078970;28;20049;-76
2021/01/20 00:33:13;;;;;;;5.47;2.60;;;8.30;99.90;;;;;;2079322;28;20030;-76
2021/01/20 00:34:13;;;;;;;6.03;3.03;;;8.20;99.90;;;;;;2078707;28;20014;-75
2021/01/20 00:35:14;;;;;;;5.70;3.35;;;8.20;99.90;;;;;;2079238;28;20048;-76
2021/01/20 00:36:15;;;;;;;6.50;3.30;;;8.20;99.90;;;;;;2078841;28;20104;-76
2021/01/20 00:37:16;;;;;;;7.00;3.70;;;8.20;99.90;;;;;;2078590;28;20029;-76
2021/01/20 00:38:17;;;;;;;5.53;3.33;;;8.30;99.90;;;;;;2078563;28;20110;-77
2021/01/20 00:39:18;;;;;;;8.50;2.95;;;8.20;99.90;;;;;;2079202;28;20036;-76
2021/01/20 00:40:18;;;;;;;8.73;3.30;;;8.30;99.90;;;;;;2079141;28;20053;-76
2021/01/20 00:41:19;;;;;;;4.90;2.92;;;8.20;99.90;;;;;;2079160;28;20030;-76
2021/01/20 00:42:20;;;;;;;5.25;3.20;;;8.30;99.90;;;;;;2078847;28;20109;-76
2021/01/20 00:43:20;;;;;;;8.13;3.13;;;8.20;99.90;;;;;;2079500;28;20033;-76
2021/01/20 00:44:21;;;;;;;6.13;3.25;;;8.20;99.90;;;;;;2078542;28;20029;-76
2021/01/20 00:45:21;;;;;;;5.45;3.30;;;8.20;99.90;;;;;;2079077;28;20048;-76
2021/01/20 00:46:22;;;;;;;7.32;3.47;;;8.20;99.90;;;;;;2070050;28;20385;-77
2021/01/20 00:47:22;;;;;;;6.07;3.08;;;8.20;99.90;;;;;;2069615;28;20832;-76
2021/01/20 00:48:23;;;;;;;6.40;3.40;;;8.20;99.90;;;;;;2078634;28;20034;-78
2021/01/20 00:49:24;;;;;;;6.10;3.25;;;8.20;99.90;;;;;;2079050;28;20094;-76
2021/01/20 00:50:24;;;;;;;5.38;2.95;;;8.20;99.90;;;;;;2078928;28;20053;-76
2021/01/20 00:51:25;;;;;;;8.00;3.40;;;8.20;99.90;;;;;;2079014;28;20064;-76
2021/01/20 00:52:26;;;;;;;7.00;3.45;;;8.20;99.90;;;;;;2078905;28;20026;-76
2021/01/20 00:53:26;;;;;;;4.65;3.25;;;8.20;99.90;;;;;;2078720;28;20025;-77
2021/01/20 00:54:27;;;;;;;7.00;3.03;;;8.20;99.90;;;;;;2069423;28;20037;-76
2021/01/20 00:55:27;;;;;;;5.82;2.67;;;8.20;99.90;;;;;;2062121;28;20022;-76
2021/01/20 00:56:28;;;;;;;5.82;3.05;;;8.20;99.90;;;;;;2070188;28;20022;-76
2021/01/20 00:57:28;;;;;;;7.32;3.25;;;8.20;99.90;;;;;;2069587;28;20448;-75
2021/01/20 00:58:29;;;;;;;6.07;2.92;;;8.20;99.90;;;;;;2069806;28;20080;-76
2021/01/20 00:59:29;;;;;;;5.68;3.33;;;8.20;99.90;;;;;;2068117;28;20049;-76
2021/01/20 01:00:30;;;;;;;4.00;2.63;;;8.20;99.90;;;;;;2070224;28;20045;-74
2021/01/20 01:01:31;;;;;;;3.63;2.80;;;8.20;99.90;;;;;;2078937;28;20060;-76
2021/01/20 01:02:31;;;;;;;6.10;3.22;;;8.10;99.90;;;;;;2079212;28;20021;-75
2021/01/20 01:03:32;;;;;;;7.30;3.42;;;8.10;99.90;;;;;;2070169;28;20029;-75
2021/01/20 01:04:32;;;;;;;6.38;3.05;;;8.20;99.90;;;;;;2062243;28;20046;-75
2021/01/20 01:05:34;;;;;;;6.78;3.00;;;8.10;99.90;;;;;;2070115;28;20612;-75
2021/01/20 01:06:35;;;;;;;6.03;3.00;;;8.10;99.90;;;;;;2078648;28;20025;-76
2021/01/20 01:07:35;;;;;;;5.72;2.60;;;8.10;99.90;;;;;;2069614;28;20026;-76
2021/01/20 01:08:36;;;;;;;6.18;3.00;;;8.10;99.90;;;;;;2069746;28;20014;-75
2021/01/20 01:09:36;;;;;;;6.97;2.97;;;8.10;99.90;;;;;;2069966;28;20631;-76
2021/01/20 01:10:37;;;;;;;5.93;2.90;;;8.10;99.90;;;;;;2078789;28;20113;-76
2021/01/20 01:11:38;;;;;;;7.70;3.42;;;8.10;99.90;;;;;;2079015;28;20052;-75
2021/01/20 01:12:38;;;;;;;4.38;2.60;;;8.10;99.90;;;;;;2079021;28;20472;-77
2021/01/20 01:13:39;;;;;;;6.65;2.80;;;8.10;99.90;;;;;;2078876;28;20048;-76
2021/01/20 01:14:39;;;;;;;5.78;2.80;;;8.00;99.90;;;;;;2079147;28;20463;-76
2021/01/20 01:15:40;;;;;;;4.05;2.63;;;8.10;99.90;;;;;;2080331;28;20028;-75
2021/01/20 01:16:41;;;;;;;4.75;2.83;;;8.10;99.90;;;;;;2080681;28;20056;-74
2021/01/20 01:17:41;;;;;;;7.07;2.97;;;8.10;99.90;;;;;;2080248;28;20031;-75
2021/01/20 01:18:42;;;;;;;4.80;3.13;;;8.10;99.90;;;;;;2080055;28;20045;-74
2021/01/20 01:19:42;;;;;;;4.97;3.13;;;8.10;99.90;;;;;;2080197;28;20028;-75
2021/01/20 01:20:43;;;;;;;5.20;3.00;;;8.10;99.90;;;;;;2080461;28;20009;-75
2021/01/20 01:21:44;;;;;;;5.60;3.15;;;8.10;99.90;;;;;;2080750;28;20538;-76
2021/01/20 01:22:44;;;;;;;10.70;3.45;;;8.10;99.90;;;;;;2080332;28;20384;-76
2021/01/20 01:23:45;;;;;;;4.15;3.17;;;8.10;99.90;;;;;;2080275;28;20025;-75
2021/01/20 01:24:45;;;;;;;6.97;3.13;;;8.10;99.90;;;;;;2080086;28;20021;-75
2021/01/20 01:25:46;;;;;;;5.63;3.28;;;8.10;99.90;;;;;;2071751;28;20029;-76
2021/01/20 01:26:46;;;;;;;5.68;3.17;;;8.10;99.90;;;;;;2071274;28;20045;-77
2021/01/20 01:27:47;;;;;;;5.90;3.00;;;8.10;99.90;;;;;;2071695;28;20046;-76
2021/01/20 01:28:48;;;;;;;5.65;3.00;;;8.10;99.90;;;;;;2071495;28;20412;-77
2021/01/20 01:29:48;;;;;;;7.63;3.58;;;8.10;99.90;;;;;;2080343;28;20105;-76
2021/01/20 01:30:49;;;;;;;7.00;3.00;;;8.10;99.90;;;;;;2071002;28;20032;-75
2021/01/20 01:31:50;;;;;;;6.95;3.25;;;8.10;99.90;;;;;;2072146;28;20144;-75
2021/01/20 01:32:50;;;;;;;5.28;3.00;;;8.10;99.90;;;;;;2080497;28;20088;-75
2021/01/20 01:33:51;;;;;;;6.10;3.42;;;8.10;99.90;;;;;;2071575;28;20117;-75
2021/01/20 01:34:51;;;;;;;6.78;2.90;;;8.10;99.90;;;;;;2071234;28;20032;-75
2021/01/20 01:35:52;;;;;;;4.72;3.10;;;8.10;99.90;;;;;;2080544;28;20083;-76
2021/01/20 01:36:53;;;;;;;5.63;3.20;;;8.10;99.90;;;;;;2079956;28;20025;-75
2021/01/20 01:37:53;;;;;;;5.88;2.95;;;8.10;99.90;;;;;;2080331;28;20026;-76
2021/01/20 01:38:54;;;;;;;5.10;3.38;;;8.10;99.90;;;;;;2079838;28;20441;-77
2021/01/20 01:39:54;;;;;;;4.53;3.08;;;8.10;99.90;;;;;;2080699;28;20021;-75
2021/01/20 01:40:55;;;;;;;5.40;3.20;;;8.10;99.90;;;;;;2080255;28;20025;-76
2021/01/20 01:41:55;;;;;;;9.00;3.50;;;8.10;99.90;;;;;;2080598;28;20057;-76
2021/01/20 01:42:57;;;;;;;5.70;3.03;;;8.10;99.90;;;;;;2080197;28;20046;-75
2021/01/20 01:43:57;;;;;;;7.40;3.00;;;8.10;99.90;;;;;;2079864;28;20083;-77
2021/01/20 01:44:58;;;;;;;5.50;3.00;;;8.10;99.90;;;;;;2079909;28;20086;-75
2021/01/20 01:45:58;;;;;;;5.60;2.97;;;8.10;99.90;;;;;;2079804;28;20033;-77
2021/01/20 01:46:59;;;;;;;4.82;3.28;;;8.10;99.90;;;;;;2079938;28;20037;-76
2021/01/20 01:48:00;;;;;;;5.20;3.60;;;8.10;99.90;;;;;;2080079;28;20045;-75
2021/01/20 01:49:02;;;;;;;5.55;3.30;;;8.10;99.90;;;;;;2071638;28;20061;-76
2021/01/20 01:50:03;;;;;;;5.07;3.25;;;8.10;99.90;;;;;;2071856;28;20083;-76
2021/01/20 01:51:04;;;;;;;7.72;3.80;;;8.20;99.90;;;;;;2080265;28;20089;-76
2021/01/20 01:52:04;;;;;;;7.13;3.58;;;8.20;99.90;;;;;;2080325;28;20057;-74
2021/01/20 01:53:05;;;;;;;5.50;3.38;;;8.20;99.90;;;;;;2080007;28;20053;-78
2021/01/20 01:54:07;;;;;;;6.18;3.40;;;8.20;99.90;;;;;;2080070;28;20013;-74
2021/01/20 01:55:10;;;;;;;7.78;3.50;;;8.20;99.90;;;;;;2071049;28;20050;-77
2021/01/20 01:56:10;;;;;;;6.03;3.50;;;8.10;99.90;;;;;;2071690;28;20022;-76
2021/01/20 01:57:11;;;;;;;6.00;3.88;;;8.10;99.90;;;;;;2070603;28;20124;-77
2021/01/20 01:58:12;;;;;;;6.82;3.38;;;8.20;99.90;;;;;;2079744;28;20036;-76
2021/01/20 01:59:14;;;;;;;9.38;4.43;;;8.20;99.90;;;;;;2071202;28;20025;-76
2021/01/20 02:00:15;;;;;;;5.47;3.92;;;8.20;99.90;;;;;;2063429;28;20036;-77
2021/01/20 02:01:17;;;;;;;10.90;3.90;;;8.20;99.90;;;;;;2071462;28;20397;-77
2021/01/20 02:02:18;;;;;;;3.65;3.17;;;8.20;99.90;;;;;;2080234;28;20030;-76
2021/01/20 02:03:18;;;;;;;4.80;3.28;;;8.20;99.90;;;;;;2080162;28;20212;-76
2021/01/20 02:04:19;;;;;;;6.85;3.80;;;8.10;99.90;;;;;;2071101;28;20079;-76
2021/01/20 02:05:20;;;;;;;7.10;3.75;;;8.20;99.90;;;;;;2071166;28;20040;-77
2021/01/20 02:06:20;;;;;;;7.20;3.47;;;8.10;99.90;;;;;;2080362;28;20438;-77
2021/01/20 02:07:21;;;;;;;6.93;3.78;;;8.10;99.90;;;;;;2079350;28;20354;-77
2021/01/20 02:08:21;;;;;;;6.50;3.60;;;8.10;99.90;;;;;;2079659;28;20057;-77
2021/01/20 02:09:23;;;;;;;8.60;4.25;;;8.10;99.90;;;;;;2079885;28;20029;-75
2021/01/20 02:10:24;;;;;;;8.10;3.80;;;8.20;99.90;;;;;;2079624;28;20037;-78
2021/01/20 02:11:58;;;;;;;5.57;3.60;;;8.20;99.90;;;;;;2080261;28;20037;-76
2021/01/20 02:13:44;;;;;;;8.63;3.88;;;8.10;99.90;;;;;;2079994;28;20028;-76
2021/01/20 02:15:21;;;;;;;6.03;3.53;;;8.10;99.90;;;;;;2038547;29;20066;-76
2021/01/20 02:16:26;;;;;;;5.70;3.40;;;8.10;99.90;;;;;;2038521;29;20114;-76
2021/01/20 02:17:44;;;;;;;4.72;3.70;;;8.10;99.90;;;;;;2033918;29;21368;-75
2021/01/20 02:18:50;;;;;;;5.85;3.92;;;8.10;99.90;;;;;;2041635;29;20019;-75
2021/01/20 02:20:28;;;;;;;7.05;3.90;;;8.10;99.90;;;;;;2041176;28;20107;-75
2021/01/20 02:21:34;;;;;;;5.70;3.85;;;8.10;99.90;;;;;;2072210;28;20468;-75
2021/01/20 02:22:41;;;;;;;5.80;3.60;;;8.10;99.90;;;;;;2080206;28;20025;-75
2021/01/20 02:23:43;;;;;;;7.65;3.90;;;8.10;99.90;;;;;;2076129;28;20026;-76
2021/01/20 02:24:56;;;;;;;6.05;3.88;;;8.10;99.90;;;;;;2078970;28;20029;-76
2021/01/20 02:26:24;;;;;;;4.75;3.72;;;8.10;99.90;;;;;;2071726;28;20041;-75
2021/01/20 02:27:41;;;;;;;4.18;2.92;;;8.10;99.90;;;;;;2075176;28;20769;-73
2021/01/20 02:29:10;;;;;;;5.47;3.90;;;8.10;99.90;;;;;;2071558;28;20030;-75
2021/01/20 02:30:12;;;;;;;5.15;3.38;;;8.10;99.90;;;;;;2069021;28;20048;-75
2021/01/20 02:31:15;;;;;;;4.88;3.83;;;8.10;99.90;;;;;;2080081;28;20029;-76
2021/01/20 02:32:17;;;;;;;5.38;3.60;;;8.10;99.90;;;;;;2079924;28;20022;-75
2021/01/20 02:33:24;;;;;;;4.43;3.80;;;8.20;99.90;;;;;;2080066;28;20017;-75
2021/01/20 02:34:26;;;;;;;6.53;3.50;;;8.20;99.90;;;;;;2070999;28;20112;-74
2021/01/20 02:35:27;;;;;;;5.22;3.58;;;8.20;99.90;;;;;;2071138;28;20371;-76
2021/01/20 02:36:30;;;;;;;6.65;3.33;;;8.20;99.90;;;;;;2071296;28;20088;-76
2021/01/20 02:37:33;;;;;;;6.00;3.47;;;8.20;99.90;;;;;;2074008;28;20381;-78
2021/01/20 02:38:34;;;;;;;6.63;3.60;;;8.20;99.90;;;;;;2079524;28;20033;-77
2021/01/20 02:39:37;;;;;;;5.68;4.05;;;8.30;99.90;;;;;;2080133;28;20029;-77
2021/01/20 02:40:37;;;;;;;6.65;3.55;;;8.20;99.90;;;;;;2079343;28;20022;-76
2021/01/20 02:41:38;;;;;;;5.28;3.47;;;8.20;99.90;;;;;;2080340;28;20028;-77
2021/01/20 02:42:44;;;;;;;4.60;3.63;;;8.30;99.90;;;;;;2079581;28;20040;-77
2021/01/20 02:43:44;;;;;;;4.82;3.00;;;8.30;99.90;;;;;;2071016;28;20092;-76
2021/01/20 02:44:45;;;;;;;6.40;3.63;;;8.30;99.90;;;;;;2070925;28;20026;-76
2021/01/20 02:45:46;;;;;;;3.25;2.92;;;8.30;99.90;;;;;;2079874;28;20471;-76
2021/01/20 02:46:46;;;;;;;3.72;2.80;;;8.30;99.90;;;;;;2070843;28;20457;-76
2021/01/20 02:47:49;;;;;;;3.58;2.42;;;8.30;99.90;;;;;;2070971;28;20038;-76
2021/01/20 02:48:51;;;;;;;5.15;3.42;;;8.40;99.90;;;;;;2070771;28;20080;-76
2021/01/20 02:49:52;;;;;;;6.03;2.92;;;8.30;99.90;;;;;;2079942;28;20026;-76
2021/01/20 02:50:53;;;;;;;4.60;3.33;;;8.30;99.90;;;;;;2079089;28;20018;-76
2021/01/20 02:52:15;;;;;;;4.32;3.10;;;8.30;99.90;;;;;;2072764;28;20033;-75
2021/01/20 02:53:19;;;;;;;3.85;2.88;;;8.40;99.90;;;;;;2080113;28;20025;-76
2021/01/20 02:54:22;;;;;;;6.95;3.90;;;8.30;99.90;;;;;;2070902;28;20044;-76
2021/01/20 02:55:26;;;;;;;5.22;3.30;;;8.30;99.90;;;;;;2071459;28;20065;-76
2021/01/20 02:56:28;;;;;;;4.20;2.92;;;8.40;99.90;;;;;;2080186;28;20033;-76
2021/01/20 02:57:32;;;;;;;5.07;3.30;;;8.40;99.90;;;;;;2079260;28;20415;-76
2021/01/20 02:58:35;;;;;;;7.40;3.30;;;8.40;99.80;;;;;;2079616;28;20033;-75
2021/01/20 02:59:38;;;;;;;6.35;3.08;;;8.40;99.90;;;;;;2080165;28;20013;-76
2021/01/20 03:00:41;;;;;;;4.88;2.88;;;8.40;99.90;;;;;;2079711;28;20024;-76
2021/01/20 03:01:48;;;;;;;6.95;2.80;;;8.40;99.80;;;;;;2081140;28;20079;-75
2021/01/20 03:02:51;;;;;;;8.00;3.10;;;8.40;99.70;;;;;;2081214;28;20040;-75
2021/01/20 03:03:52;;;;;;;5.75;3.03;;;8.40;99.60;;;;;;2080963;28;20483;-76
2021/01/20 03:04:56;;;;;;;6.30;3.15;;;8.50;99.60;;;;;;2080465;28;20064;-76
2021/01/20 03:05:58;;;;;;;4.00;3.45;;;8.40;99.50;;;;;;2080793;28;20068;-76
2021/01/20 03:07:00;;;;;;;4.13;2.97;;;8.50;99.60;;;;;;2080362;28;20026;-76
2021/01/20 03:08:02;;;;;;;4.07;2.90;;;8.50;99.60;;;;;;2080641;28;20026;-77
2021/01/20 03:09:04;;;;;;;4.82;2.88;;;8.40;99.60;;;;;;2081125;28;20026;-76
2021/01/20 03:10:10;;;;;;;4.00;3.15;;;8.50;99.60;;;;;;2072130;28;20117;-77
2021/01/20 03:11:11;;;;;;;5.32;2.90;;;8.50;99.30;;;;;;2073061;28;20026;-77
2021/01/20 03:12:12;;;;;;;5.32;2.90;;;8.50;99.50;;;;;;2080966;28;20022;-76
2021/01/20 03:13:13;;;;;;;5.22;2.75;;;8.50;99.40;;;;;;2072325;28;20568;-76
2021/01/20 03:14:16;;;;;;;3.70;2.72;;;8.50;99.40;;;;;;2072015;28;20033;-75
2021/01/20 03:15:38;;;;;;;6.53;2.70;;;8.50;99.40;;;;;;2081211;28;20022;-76
2021/01/20 03:16:39;;;;;;;5.68;2.92;;;8.50;99.20;;;;;;2081281;28;20028;-76
2021/01/20 03:17:40;;;;;;;7.30;3.60;;;8.50;99.30;;;;;;2080502;28;20021;-75
2021/01/20 03:18:40;;;;;;;4.38;3.10;;;8.50;99.50;;;;;;2080518;28;20106;-76
2021/01/20 03:19:41;;;;;;;4.35;2.50;;;8.50;99.40;;;;;;2080850;28;20095;-75
2021/01/20 03:20:42;;;;;;;6.80;2.63;;;8.50;99.40;;;;;;2075186;28;20026;-75
2021/01/20 03:21:42;;;;;;;4.50;3.40;;;8.60;99.30;;;;;;2078077;28;20028;-76
2021/01/20 03:22:43;;;;;;;5.95;2.90;;;8.50;99.20;;;;;;2080938;28;20021;-76
2021/01/20 03:23:43;;;;;;;3.20;2.50;;;8.60;99.20;;;;;;2080978;28;20115;-75
2021/01/20 03:24:44;;;;;;;5.72;3.25;;;8.60;99.10;;;;;;2080552;28;20622;-75
2021/01/20 03:25:44;;;;;;;5.30;2.92;;;8.60;99.10;;;;;;2081057;28;20101;-75
2021/01/20 03:26:45;;;;;;;5.78;2.92;;;8.60;99.10;;;;;;2080394;28;20025;-75
2021/01/20 03:27:46;;;;;;;2.85;2.60;;;8.60;99.10;;;;;;2080682;28;20480;-75
2021/01/20 03:28:47;;;;;;;6.68;3.22;;;8.60;99.10;;;;;;2080492;28;20017;-76
2021/01/20 03:29:47;;;;;;;4.38;3.00;;;8.60;99.20;;;;;;2080870;28;20496;-75
2021/01/20 03:30:48;;;;;;;4.13;2.70;;;8.60;99.10;;;;;;2071582;28;20441;-76
2021/01/20 03:31:49;;;;;;;3.63;2.90;;;8.60;99.20;;;;;;2072035;28;20028;-75
2021/01/20 03:32:49;;;;;;;4.22;2.88;;;8.60;99.20;;;;;;2080381;28;20041;-74
2021/01/20 03:33:50;;;;;;;3.70;2.50;;;8.60;99.20;;;;;;2080790;28;20037;-76
2021/01/20 03:34:51;;;;;;;3.95;3.25;;;8.60;99.10;;;;;;2080787;28;20108;-74
2021/01/20 03:35:51;;;;;;;3.55;2.67;;;8.60;99.20;;;;;;2080621;28;20036;-75
2021/01/20 03:36:52;;;;;;;3.67;2.63;;;8.60;99.30;;;;;;2080088;28;20055;-75
2021/01/20 03:37:52;;;;;;;3.22;2.85;;;8.60;99.30;;;;;;2080042;28;20476;-76
2021/01/20 03:38:53;;;;;;;5.68;3.08;;;8.60;99.40;;;;;;2079979;28;20021;-74
2021/01/20 03:39:54;;;;;;;3.85;2.78;;;8.70;99.50;;;;;;2081384;28;20480;-74
2021/01/20 03:40:55;;;;;;;4.63;3.08;;;8.70;99.50;;;;;;2080553;28;20037;-75
2021/01/20 03:41:55;;;;;;;5.03;3.25;;;8.70;99.50;;;;;;2081176;28;20384;-75
2021/01/20 03:42:56;;;;;;;2.78;2.33;;;8.70;99.40;;;;;;2080692;28;20044;-75
2021/01/20 03:43:56;;;;;;;6.32;2.90;;;8.70;99.40;;;;;;2080805;28;20079;-76
2021/01/20 03:44:57;;;;;;;7.65;3.45;;;8.70;99.30;;;;;;2080740;28;20036;-74
2021/01/20 03:45:58;;;;;;;3.88;2.67;;;8.70;99.30;;;;;;2071906;28;20524;-76
2021/01/20 03:46:58;;;;;;;5.72;2.85;;;8.70;99.30;;;;;;2071464;28;20370;-76
2021/01/20 03:47:59;;;;;;;4.07;3.20;;;8.70;99.40;;;;;;2072058;28;20034;-74
2021/01/20 03:48:59;;;;;;;3.50;2.97;;;8.70;99.40;;;;;;2071943;28;20022;-75
2021/01/20 03:50:00;;;;;;;3.95;3.30;;;8.70;99.50;;;;;;2081243;28;20025;-74
2021/01/20 03:51:01;;;;;;;4.40;3.10;;;8.70;99.60;;;;;;2080357;28;20055;-75
2021/01/20 03:52:02;;;;;;;3.13;2.63;;;8.70;99.60;;;;;;2080736;28;20057;-75
2021/01/20 03:53:02;;;;;;;5.88;3.05;;;8.70;99.80;;;;;;2080691;28;20037;-74
2021/01/20 03:54:03;;;;;;;4.70;3.05;;;8.70;99.80;;;;;;2080651;28;20024;-75
2021/01/20 03:55:05;;;;;;;3.95;2.65;;;8.70;99.90;;;;;;2080396;28;20391;-75
2021/01/20 03:56:05;;;;;;;4.60;3.30;;;8.70;99.80;;;;;;2080798;28;20033;-74
2021/01/20 03:57:06;;;;;;;4.75;3.10;;;8.70;99.70;;;;;;2080028;28;20147;-74
2021/01/20 03:58:06;;;;;;;5.43;3.17;;;8.70;99.70;;;;;;2080493;28;20036;-75
2021/01/20 03:59:07;;;;;;;4.68;3.17;;;8.70;99.80;;;;;;2072145;28;20026;-75
2021/01/20 04:00:08;;;;;;;4.85;3.10;;;8.70;99.80;;;;;;2071984;28;20049;-75
2021/01/20 04:01:09;;;;;;;5.05;2.90;;;8.70;99.80;;;;;;2072008;28;20033;-76
2021/01/20 04:02:09;;;;;;;4.18;2.92;;;8.70;99.70;;;;;;2071068;28;20121;-75
2021/01/20 04:03:10;;;;;;;4.45;2.65;;;8.70;99.70;;;;;;2080012;28;20049;-76
2021/01/20 04:04:10;;;;;;;6.20;3.47;;;8.70;99.70;;;;;;2079778;28;20499;-75
2021/01/20 04:05:11;;;;;;;5.43;2.88;;;8.70;99.60;;;;;;2079912;28;20029;-76
2021/01/20 04:06:12;;;;;;;5.95;2.58;;;8.70;99.70;;;;;;2079624;28;20029;-76
2021/01/20 04:07:12;;;;;;;4.78;3.10;;;8.70;99.70;;;;;;2079518;28;20071;-75
2021/01/20 04:08:13;;;;;;;4.18;2.92;;;8.70;99.60;;;;;;2079327;28;20056;-76
2021/01/20 04:09:14;;;;;;;3.67;2.90;;;8.70;99.50;;;;;;2080098;28;20031;-76
2021/01/20 04:10:14;;;;;;;3.75;2.22;;;8.70;99.40;;;;;;2079920;28;20487;-76
2021/01/20 04:11:15;;;;;;;4.20;2.88;;;8.70;99.40;;;;;;2070882;28;20025;-74
2021/01/20 04:12:16;;;;;;;3.47;2.75;;;8.70;99.40;;;;;;2071072;28;20109;-76
2021/01/20 04:13:16;;;;;;;7.28;3.20;;;8.70;99.40;;;;;;2070967;28;20102;-76
2021/01/20 04:14:17;;;;;;;4.55;2.78;;;8.70;99.40;;;;;;2070776;28;20040;-75
2021/01/20 04:15:17;;;;;;;5.18;3.28;;;8.80;99.40;;;;;;2079316;28;20029;-76
2021/01/20 04:16:18;;;;;;;3.40;2.53;;;8.80;99.40;;;;;;2079724;28;20064;-75
2021/01/20 04:17:18;;;;;;;5.20;2.65;;;8.80;99.40;;;;;;2079106;28;20029;-76
2021/01/20 04:18:19;;;;;;;3.17;2.72;;;8.80;99.50;;;;;;2078396;28;20084;-76
2021/01/20 04:19:20;;;;;;;3.75;2.63;;;8.80;99.50;;;;;;2079494;28;20536;-75
2021/01/20 04:20:20;;;;;;;3.85;2.78;;;8.80;99.30;;;;;;2079490;28;20032;-76
2021/01/20 04:21:21;;;;;;;3.50;2.70;;;8.80;99.10;;;;;;2079735;28;20032;-75
2021/01/20 04:22:22;;;;;;;3.45;2.40;;;8.80;99.10;;;;;;2079381;28;20030;-77
2021/01/20 04:23:22;;;;;;;3.30;2.80;;;8.80;99.10;;;;;;2079547;28;20060;-75
2021/01/20 04:24:23;;;;;;;4.65;2.90;;;8.80;99.00;;;;;;2079461;28;20091;-75
2021/01/20 04:25:24;;;;;;;3.90;2.83;;;8.80;99.00;;;;;;2079622;28;20175;-74
2021/01/20 04:26:24;;;;;;;7.18;2.65;;;8.80;99.00;;;;;;2078915;28;20029;-75
2021/01/20 04:27:25;;;;;;;3.92;2.80;;;8.80;98.80;;;;;;2078378;28;20043;-75
2021/01/20 04:28:25;;;;;;;3.85;2.72;;;8.80;98.80;;;;;;2077954;28;20679;-76
2021/01/20 04:29:26;;;;;;;3.05;2.58;;;8.80;98.60;;;;;;2079222;28;20037;-75
2021/01/20 04:30:27;;;;;;;3.42;2.92;;;8.80;98.80;;;;;;2079290;28;20033;-76
2021/01/20 04:31:27;;;;;;;7.55;3.00;;;8.80;98.70;;;;;;2070269;28;20056;-75
2021/01/20 04:32:28;;;;;;;3.03;2.33;;;8.80;98.80;;;;;;2070655;28;20378;-74
2021/01/20 04:33:29;;;;;;;4.78;2.80;;;8.80;98.60;;;;;;2078593;28;20413;-76
2021/01/20 04:34:30;;;;;;;3.40;2.47;;;8.80;98.70;;;;;;2078496;28;20037;-78
2021/01/20 04:35:30;;;;;;;3.42;2.72;;;8.80;98.70;;;;;;2070240;28;20069;-75
2021/01/20 04:36:31;;;;;;;4.68;2.35;;;8.80;98.70;;;;;;2070561;28;20049;-75
2021/01/20 04:37:31;;;;;;;3.35;2.42;;;8.90;98.90;;;;;;2078502;28;20024;-76
2021/01/20 04:38:32;;;;;;;5.53;2.72;;;8.90;98.90;;;;;;2079059;28;20025;-75
2021/01/20 04:39:33;;;;;;;4.45;2.58;;;8.80;98.80;;;;;;2079015;28;20025;-77
2021/01/20 04:40:34;;;;;;;4.53;2.60;;;8.90;98.80;;;;;;2079096;28;20044;-77
2021/01/20 04:41:34;;;;;;;4.05;2.67;;;8.90;98.80;;;;;;2079056;28;20025;-76
2021/01/20 04:42:35;;;;;;;3.88;2.50;;;8.90;98.80;;;;;;2079084;28;20027;-76
2021/01/20 04:43:36;;;;;;;3.63;2.50;;;8.90;98.90;;;;;;2078893;28;20033;-77
2021/01/20 04:44:37;;;;;;;3.90;2.42;;;8.90;98.80;;;;;;2078902;28;20033;-76
2021/01/20 04:45:38;;;;;;;5.50;2.80;;;8.90;98.90;;;;;;2078781;28;20026;-76
2021/01/20 04:46:41;;;;;;;5.88;2.55;;;8.90;98.80;;;;;;2079045;28;20380;-76
2021/01/20 04:47:43;;;;;;;4.28;2.58;;;8.90;98.80;;;;;;2078762;28;20032;-77
2021/01/20 04:48:48;;;;;;;4.57;2.63;;;8.90;98.80;;;;;;2079247;28;20013;-77
2021/01/20 04:49:51;;;;;;;3.33;2.63;;;8.90;98.80;;;;;;2072026;28;20386;-76
2021/01/20 04:50:52;;;;;;;3.50;2.30;;;9.00;98.50;;;;;;2072148;28;20026;-76
2021/01/20 04:51:55;;;;;;;4.78;2.67;;;9.00;98.60;;;;;;2080689;28;20477;-75
2021/01/20 04:53:05;;;;;;;5.70;2.88;;;9.00;98.60;;;;;;2080982;28;20383;-74
2021/01/20 04:54:09;;;;;;;5.20;2.63;;;9.00;98.60;;;;;;2080630;28;20026;-74
2021/01/20 04:55:10;;;;;;;3.78;2.60;;;9.00;98.50;;;;;;2080952;28;20030;-75
2021/01/20 04:56:13;;;;;;;3.10;2.50;;;9.00;98.50;;;;;;2080587;28;20026;-76
2021/01/20 04:57:14;;;;;;;3.25;2.58;;;9.00;98.30;;;;;;2071342;28;20026;-75
2021/01/20 04:58:14;;;;;;;3.45;2.42;;;9.00;98.60;;;;;;2071884;28;20037;-74
2021/01/20 04:59:16;;;;;;;3.00;2.40;;;9.00;98.40;;;;;;2080852;28;20097;-75
2021/01/20 05:00:17;;;;;;;3.42;2.47;;;9.00;98.50;;;;;;2080668;28;20637;-75
2021/01/20 05:01:18;;;;;;;3.38;2.40;;;9.00;98.40;;;;;;2071923;28;20040;-75
2021/01/20 05:02:22;;;;;;;3.15;2.45;;;9.00;98.60;;;;;;2073577;28;20033;-74
2021/01/20 05:03:23;;;;;;;4.20;2.92;;;9.00;98.60;;;;;;2081043;28;20064;-75
2021/01/20 05:04:24;;;;;;;3.10;2.45;;;9.00;98.70;;;;;;2080716;28;20060;-74
2021/01/20 05:05:26;;;;;;;2.53;2.13;;;9.00;98.60;;;;;;2080528;28;20757;-75
2021/01/20 05:06:30;;;;;;;4.95;2.65;;;9.00;98.50;;;;;;2080784;28;20030;-75
2021/01/20 05:07:31;;;;;;;3.28;2.70;;;9.00;98.60;;;;;;2071355;28;20384;-76
2021/01/20 05:08:31;;;;;;;4.50;2.72;;;9.00;98.70;;;;;;2071959;28;20108;-76
2021/01/20 05:09:32;;;;;;;3.67;2.50;;;9.00;98.70;;;;;;2080867;28;20030;-76
2021/01/20 05:10:33;;;;;;;4.93;2.67;;;9.00;98.70;;;;;;2072008;28;20018;-77
2021/01/20 05:11:38;;;;;;;4.78;2.65;;;9.00;98.60;;;;;;2071781;28;20493;-76
2021/01/20 05:12:43;;;;;;;3.83;2.75;;;9.00;98.50;;;;;;2080495;28;20101;-74
2021/01/20 05:13:44;;;;;;;3.58;2.30;;;9.00;98.50;;;;;;2080190;28;20112;-77
2021/01/20 05:14:45;;;;;;;4.18;2.83;;;9.00;98.60;;;;;;2071603;28;20025;-77
2021/01/20 05:15:46;;;;;;;4.20;3.10;;;9.00;98.40;;;;;;2071661;28;20520;-76
2021/01/20 05:16:49;;;;;;;2.50;2.30;;;9.00;98.40;;;;;;2080027;28;20112;-77
2021/01/20 05:18:03;;;;;;;5.20;2.50;;;9.00;98.40;;;;;;2080593;28;20022;-75
2021/01/20 05:19:04;;;;;;;2.65;2.45;;;9.00;97.90;;;;;;2080618;28;20518;-77
2021/01/20 05:20:24;;;;;;;3.83;2.70;;;9.00;98.20;;;;;;2080924;28;20049;-73
2021/01/20 05:21:25;;;;;;;3.00;2.30;;;9.10;98.20;;;;;;2076399;28;20033;-77
2021/01/20 05:22:25;;;;;;;3.53;2.40;;;9.00;98.50;;;;;;2080714;28;20030;-76
2021/01/20 05:23:26;;;;;;;2.60;2.30;;;9.00;98.20;;;;;;2080313;28;20033;-75
2021/01/20 05:24:27;;;;;;;4.60;2.55;;;9.10;98.20;;;;;;2080924;28;20029;-77
2021/01/20 05:25:38;;;;;;;3.67;2.65;;;9.00;98.10;;;;;;2071201;28;20025;-76
2021/01/20 05:26:46;;;;;;;4.03;2.38;;;9.10;97.40;;;;;;2073476;28;20022;-77
2021/01/20 05:27:46;;;;;;;4.05;2.88;;;9.10;97.60;;;;;;2080253;28;20033;-75
2021/01/20 05:28:47;;;;;;;4.45;2.22;;;9.00;97.80;;;;;;2080465;28;20030;-77